Time,TemperatureF,DewpointF,PressureIn,WindDirection,WindDirectionDegrees,WindSpeedMPH,WindSpeedGustMPH,Humidity,HourlyPrecipIn,Conditions,Clouds,dailyrainin,SoftwareType,DateUTC
2013-05-19 00:00:00,53.6,44.8,30.27,North,0,3.1,4.9,72,0.00,,CLR,0.00,VWS V14.00,2013-05-19 04:00:00,
2013-05-19 00:03:00,53.6,44.8,30.27,NE,47,0.0,3.1,72,0.00,,FEW110,0.00,VWS V14.00,2013-05-19 04:03:00,
2013-05-19 00:05:00,53.4,45.0,30.27,NE,47,0.0,3.1,73,0.00,,FEW110,0.00,VWS V14.00,2013-05-19 04:05:00,
2013-05-19 00:12:00,53.1,45.0,30.27,NNW,338,3.6,3.6,74,0.00,,FEW110,0.00,VWS V14.00,2013-05-19 04:12:00,
2013-05-19 00:14:00,53.1,45.0,30.27,North,353,0.0,3.6,74,0.00,,FEW110,0.00,VWS V14.00,2013-05-19 04:14:00,
2013-05-19 00:19:00,52.9,45.2,30.27,North,357,0.0,4.0,75,0.00,,FEW110,0.00,VWS V14.00,2013-05-19 04:19:00,
2013-05-19 00:20:00,52.9,45.2,30.27,North,357,0.0,4.0,75,0.00,,FEW110,0.00,VWS V14.00,2013-05-19 04:20:00,
2013-05-19 00:26:00,52.7,45.4,30.27,North,357,0.0,0.0,76,0.00,,FEW110,0.00,VWS V14.00,2013-05-19 04:26:00,
2013-05-19 00:33:00,52.3,45.0,30.27,North,357,0.0,0.0,76,0.00,,FEW110,0.00,VWS V14.00,2013-05-19 04:33:00,
2013-05-19 00:40:00,52.2,44.8,30.27,North,357,0.0,0.0,76,0.00,,FEW110,0.00,VWS V14.00,2013-05-19 04:40:00,
2013-05-19 00:45:00,52.0,44.7,30.27,North,357,0.0,0.0,76,0.00,,FEW110,0.00,VWS V14.00,2013-05-19 04:45:00,
2013-05-19 00:52:00,51.8,44.8,30.27,North,357,0.0,0.0,77,0.00,,FEW110,0.00,VWS V14.00,2013-05-19 04:52:00,
2013-05-19 00:59:00,51.6,44.7,30.27,North,357,0.0,0.0,77,0.00,,FEW110,0.00,VWS V14.00,2013-05-19 04:59:00,
2013-05-19 01:06:00,51.6,45.0,30.27,North,357,0.0,0.0,78,0.00,,FEW100,0.00,VWS V14.00,2013-05-19 05:06:00,
2013-05-19 01:13:00,51.4,44.8,30.27,North,357,0.0,0.0,78,0.00,,FEW100,0.00,VWS V14.00,2013-05-19 05:13:00,
2013-05-19 01:20:00,51.3,44.6,30.27,North,357,0.0,0.0,78,0.00,,FEW100,0.00,VWS V14.00,2013-05-19 05:20:00,
2013-05-19 01:27:00,51.3,45.0,30.27,North,357,0.0,0.0,79,0.00,,FEW100,0.00,VWS V14.00,2013-05-19 05:27:00,
2013-05-19 01:34:00,51.4,45.5,30.27,North,357,0.0,0.0,80,0.00,,FEW100,0.00,VWS V14.00,2013-05-19 05:34:00,
2013-05-19 01:40:00,51.6,46.0,30.27,North,357,0.0,0.0,81,0.00,,FEW100,0.00,VWS V14.00,2013-05-19 05:40:00,
2013-05-19 01:46:00,51.8,46.2,30.27,North,0,2.7,2.7,81,0.00,,,0.00,VWS V14.00,2013-05-19 05:46:00,
2013-05-19 01:53:00,52.0,47.0,30.27,North,0,0.0,0.0,83,0.00,,,0.00,VWS V14.00,2013-05-19 05:53:00,
2013-05-19 02:00:00,52.0,47.3,30.27,North,0,0.0,0.0,84,0.00,,,0.00,VWS V14.00,2013-05-19 06:00:00,
2013-05-19 02:07:00,52.2,47.8,30.27,North,353,0.0,4.0,85,0.00,,,0.00,VWS V14.00,2013-05-19 06:07:00,
2013-05-19 02:14:00,52.2,48.1,30.27,WNW,300,2.2,3.6,86,0.00,,,0.00,VWS V14.00,2013-05-19 06:14:00,
2013-05-19 02:20:00,52.3,48.6,30.27,NNW,340,0.0,4.0,87,0.00,,,0.00,VWS V14.00,2013-05-19 06:20:00,
2013-05-19 02:25:00,52.3,48.6,30.27,NW,322,4.0,4.0,87,0.00,,,0.00,VWS V14.00,2013-05-19 06:25:00,
2013-05-19 02:32:00,52.2,48.7,30.27,WNW,298,2.7,3.6,88,0.00,,,0.00,VWS V14.00,2013-05-19 06:32:00,
2013-05-19 02:39:00,52.2,48.7,30.27,WNW,290,0.0,3.6,88,0.00,,,0.00,VWS V14.00,2013-05-19 06:39:00,
2013-05-19 02:46:00,52.0,48.5,30.27,NNW,337,0.0,0.0,88,0.00,,,0.00,VWS V14.00,2013-05-19 06:46:00,
2013-05-19 02:53:00,52.0,48.5,30.27,NNW,337,4.0,4.0,88,0.00,,,0.00,VWS V14.00,2013-05-19 06:53:00,
2013-05-19 03:00:00,51.8,48.4,30.27,SW,230,4.0,4.0,88,0.00,,,0.00,VWS V14.00,2013-05-19 07:00:00,
2013-05-19 03:05:00,51.8,48.4,30.27,SW,228,0.0,4.0,88,0.00,,,0.00,VWS V14.00,2013-05-19 07:05:00,
2013-05-19 03:12:00,51.6,48.5,30.27,NNW,329,0.0,0.0,89,0.00,,,0.00,VWS V14.00,2013-05-19 07:12:00,
2013-05-19 03:19:00,51.6,48.5,30.27,NNW,329,0.0,0.0,89,0.00,,,0.00,VWS V14.00,2013-05-19 07:19:00,
2013-05-19 03:26:00,51.6,48.5,30.30,North,0,4.0,4.9,89,0.00,,,0.00,VWS V14.00,2013-05-19 07:26:00,
2013-05-19 03:33:00,51.6,48.5,30.30,North,357,2.2,5.4,89,0.00,,,0.00,VWS V14.00,2013-05-19 07:33:00,
2013-05-19 03:40:00,51.4,48.6,30.30,North,350,3.1,5.4,90,0.00,,,0.00,VWS V14.00,2013-05-19 07:40:00,
2013-05-19 03:45:00,51.4,48.6,30.30,NW,324,3.6,5.8,90,0.00,,,0.00,VWS V14.00,2013-05-19 07:45:00,
2013-05-19 03:52:00,51.4,48.6,30.30,North,357,2.7,3.1,90,0.00,,,0.00,VWS V14.00,2013-05-19 07:52:00,
2013-05-19 03:59:00,51.4,48.9,30.30,North,7,2.7,5.8,91,0.00,,,0.00,VWS V14.00,2013-05-19 07:59:00,
2013-05-19 04:06:00,51.6,49.1,30.30,NNW,340,2.2,4.9,91,0.00,,,0.00,VWS V14.00,2013-05-19 08:06:00,
2013-05-19 04:13:00,51.6,49.1,30.30,North,2,0.0,4.0,91,0.00,,,0.00,VWS V14.00,2013-05-19 08:13:00,
2013-05-19 04:20:00,51.6,49.4,30.30,NW,318,3.6,6.3,92,0.00,,,0.00,VWS V14.00,2013-05-19 08:20:00,
2013-05-19 04:25:00,51.8,49.5,30.30,North,0,4.0,6.3,92,0.00,,,0.00,VWS V14.00,2013-05-19 08:25:00,
2013-05-19 04:32:00,51.8,49.5,30.30,NNW,339,2.7,3.6,92,0.00,,,0.00,VWS V14.00,2013-05-19 08:32:00,
2013-05-19 04:39:00,52.0,49.7,30.30,NNW,328,3.6,4.0,92,0.00,,,0.00,VWS V14.00,2013-05-19 08:39:00,
2013-05-19 04:46:00,52.0,49.7,30.30,NNW,341,2.2,3.6,92,0.00,,,0.00,VWS V14.00,2013-05-19 08:46:00,
2013-05-19 04:53:00,52.2,49.9,30.30,North,0,2.2,4.9,92,0.00,,,0.00,VWS V14.00,2013-05-19 08:53:00,
2013-05-19 05:00:00,52.2,49.6,30.30,NNW,337,4.0,5.4,91,0.00,,,0.00,VWS V14.00,2013-05-19 09:00:00,
2013-05-19 05:07:00,52.2,49.6,30.30,NNW,345,5.4,5.8,91,0.00,,,0.00,VWS V14.00,2013-05-19 09:07:00,
2013-05-19 05:14:00,52.2,49.3,30.30,North,353,3.1,4.5,90,0.00,,,0.00,VWS V14.00,2013-05-19 09:14:00,
2013-05-19 05:20:00,52.2,49.3,30.30,NNW,344,3.6,4.5,90,0.00,,,0.00,VWS V14.00,2013-05-19 09:20:00,
2013-05-19 05:26:00,52.2,49.3,30.30,NNW,335,4.0,4.0,90,0.00,,,0.00,VWS V14.00,2013-05-19 09:26:00,
2013-05-19 05:33:00,52.3,49.5,30.30,North,349,3.1,4.0,90,0.00,,,0.00,VWS V14.00,2013-05-19 09:33:00,
2013-05-19 05:40:00,52.3,49.5,30.33,NE,34,2.2,4.5,90,0.00,,,0.00,VWS V14.00,2013-05-19 09:40:00,
2013-05-19 05:47:00,52.3,49.2,30.33,North,4,3.1,4.9,89,0.00,,,0.00,VWS V14.00,2013-05-19 09:47:00,
2013-05-19 05:54:00,52.5,49.4,30.33,North,0,4.0,4.9,89,0.00,,,0.00,VWS V14.00,2013-05-19 09:54:00,
2013-05-19 06:00:00,52.7,49.2,30.33,NNE,26,3.1,5.4,88,0.00,,,0.00,VWS V14.00,2013-05-19 10:00:00,
2013-05-19 06:05:00,52.7,49.2,30.33,North,0,3.6,4.9,88,0.00,,,0.00,VWS V14.00,2013-05-19 10:05:00,
2013-05-19 06:12:00,52.7,48.6,30.33,North,0,3.6,4.0,86,0.00,,,0.00,VWS V14.00,2013-05-19 10:12:00,
2013-05-19 06:19:00,52.9,48.8,30.33,North,353,3.1,4.0,86,0.00,,,0.00,VWS V14.00,2013-05-19 10:19:00,
2013-05-19 06:26:00,53.1,48.7,30.33,North,357,3.6,4.9,85,0.00,,,0.00,VWS V14.00,2013-05-19 10:26:00,
2013-05-19 06:33:00,53.1,48.0,30.33,NNE,13,0.0,4.0,83,0.00,,,0.00,VWS V14.00,2013-05-19 10:33:00,
2013-05-19 06:40:00,53.1,47.4,30.33,North,1,4.0,4.0,81,0.00,,,0.00,VWS V14.00,2013-05-19 10:40:00,
2013-05-19 06:45:00,53.1,47.1,30.33,North,349,2.2,4.9,80,0.00,,,0.00,VWS V14.00,2013-05-19 10:45:00,
2013-05-19 06:52:00,53.1,46.0,30.33,North,8,2.2,4.9,77,0.00,,,0.00,VWS V14.00,2013-05-19 10:52:00,
2013-05-19 06:59:00,52.9,45.2,30.33,NW,305,3.6,5.4,75,0.00,,,0.00,VWS V14.00,2013-05-19 10:59:00,
2013-05-19 07:06:00,53.1,45.4,30.33,NW,319,2.7,4.5,75,0.00,,OVC006,0.00,VWS V14.00,2013-05-19 11:06:00,
2013-05-19 07:13:00,53.4,45.3,30.33,North,357,0.0,2.2,74,0.00,,OVC006,0.00,VWS V14.00,2013-05-19 11:13:00,
2013-05-19 07:20:00,53.6,45.2,30.33,NNW,348,2.2,3.1,73,0.00,,OVC006,0.00,VWS V14.00,2013-05-19 11:20:00,
2013-05-19 07:25:00,53.6,44.8,30.33,NNW,346,3.1,5.4,72,0.00,,OVC006,0.00,VWS V14.00,2013-05-19 11:25:00,
2013-05-19 07:32:00,53.8,44.6,30.33,NW,317,0.0,0.0,71,0.00,,OVC006,0.00,VWS V14.00,2013-05-19 11:32:00,
2013-05-19 07:39:00,54.1,44.6,30.33,NNW,330,2.2,4.0,70,0.00,,OVC006,0.00,VWS V14.00,2013-05-19 11:39:00,
2013-05-19 07:46:00,54.5,44.5,30.33,North,357,0.0,3.6,69,0.00,,OVC006,0.00,VWS V14.00,2013-05-19 11:46:00,
2013-05-19 07:53:00,54.9,44.5,30.33,NW,305,4.0,4.9,68,0.00,,OVC006,0.00,VWS V14.00,2013-05-19 11:53:00,
2013-05-19 08:00:00,55.4,43.8,30.33,North,4,0.0,4.9,65,0.00,,OVC006,0.00,VWS V14.00,2013-05-19 12:00:00,
2013-05-19 08:05:00,55.6,43.6,30.33,NNE,23,0.0,3.1,64,0.00,,OVC006,0.00,VWS V14.00,2013-05-19 12:05:00,
2013-05-19 08:12:00,55.9,43.5,30.33,NNE,20,0.0,0.0,63,0.00,,OVC006,0.00,VWS V14.00,2013-05-19 12:12:00,
2013-05-19 08:19:00,56.3,43.0,30.33,NNW,334,0.0,5.8,61,0.00,,OVC006,0.00,VWS V14.00,2013-05-19 12:19:00,
2013-05-19 08:26:00,56.7,42.5,30.33,NNW,341,0.0,3.1,59,0.00,,OVC006,0.00,VWS V14.00,2013-05-19 12:26:00,
2013-05-19 08:33:00,56.7,42.1,30.33,ENE,77,0.0,2.2,58,0.00,,OVC006,0.00,VWS V14.00,2013-05-19 12:33:00,
2013-05-19 08:40:00,56.8,41.8,30.33,North,4,2.7,5.4,57,0.00,,OVC006,0.00,VWS V14.00,2013-05-19 12:40:00,
2013-05-19 08:47:00,57.2,41.7,30.33,North,357,2.7,3.1,56,0.00,,FEW010,0.00,VWS V14.00,2013-05-19 12:47:00,
2013-05-19 08:54:00,60.1,43.9,30.33,North,6,0.0,4.5,55,0.00,,FEW010,0.00,VWS V14.00,2013-05-19 12:54:00,
2013-05-19 09:00:00,64.0,43.4,30.33,North,0,4.9,7.6,47,0.00,,FEW010,0.00,VWS V14.00,2013-05-19 13:00:00,
2013-05-19 09:06:00,65.8,42.1,30.33,North,7,4.0,8.3,42,0.00,,FEW010,0.00,VWS V14.00,2013-05-19 13:06:00,
2013-05-19 09:13:00,65.8,41.5,30.33,NNE,20,4.9,6.3,41,0.00,,FEW010,0.00,VWS V14.00,2013-05-19 13:13:00,
2013-05-19 09:20:00,67.1,42.0,30.33,North,0,5.4,7.6,40,0.00,,FEW010,0.00,VWS V14.00,2013-05-19 13:20:00,
2013-05-19 09:27:00,66.7,41.7,30.33,North,357,3.6,7.6,40,0.00,,FEW010,0.00,VWS V14.00,2013-05-19 13:27:00,
2013-05-19 09:34:00,66.4,41.3,30.33,North,0,4.0,8.7,40,0.00,,FEW010,0.00,VWS V14.00,2013-05-19 13:34:00,
2013-05-19 09:40:00,66.4,42.0,30.36,NNW,342,6.3,8.7,41,0.00,,FEW010,0.00,VWS V14.00,2013-05-19 13:40:00,
2013-05-19 09:45:00,65.5,40.5,30.36,North,5,4.0,6.7,40,0.00,,FEW010,0.00,VWS V14.00,2013-05-19 13:45:00,
2013-05-19 09:52:00,64.8,40.5,30.33,North,0,4.0,6.3,41,0.00,,FEW010,0.00,VWS V14.00,2013-05-19 13:52:00,
2013-05-19 09:59:00,63.9,41.0,30.33,North,353,3.6,7.6,43,0.00,,FEW010,0.00,VWS V14.00,2013-05-19 13:59:00,
2013-05-19 10:06:00,64.8,41.8,30.33,East,85,3.1,5.4,43,0.00,,CLR,0.00,VWS V14.00,2013-05-19 14:06:00,
2013-05-19 10:13:00,66.0,41.7,30.33,NW,315,5.8,5.8,41,0.00,,CLR,0.00,VWS V14.00,2013-05-19 14:13:00,
2013-05-19 10:20:00,66.2,40.5,30.33,SW,219,3.6,5.8,39,0.00,,CLR,0.00,VWS V14.00,2013-05-19 14:20:00,
2013-05-19 10:25:00,65.5,40.5,30.33,SSE,159,0.0,5.8,40,0.00,,CLR,0.00,VWS V14.00,2013-05-19 14:25:00,
2013-05-19 10:32:00,66.2,41.2,30.33,WSW,250,4.0,8.1,40,0.00,,CLR,0.00,VWS V14.00,2013-05-19 14:32:00,
2013-05-19 10:39:00,66.6,40.9,30.36,SSW,208,2.2,8.1,39,0.00,,CLR,0.00,VWS V14.00,2013-05-19 14:39:00,
2013-05-19 10:46:00,67.3,41.5,30.36,WSW,251,5.8,8.3,39,0.00,,CLR,0.00,VWS V14.00,2013-05-19 14:46:00,
2013-05-19 10:53:00,67.1,41.3,30.36,WSW,246,5.8,5.8,39,0.00,,CLR,0.00,VWS V14.00,2013-05-19 14:53:00,
2013-05-19 11:00:00,66.4,40.7,30.36,ESE,103,3.6,6.3,39,0.00,,CLR,0.00,VWS V14.00,2013-05-19 15:00:00,
2013-05-19 11:05:00,66.7,41.0,30.36,NNW,332,2.2,3.6,39,0.00,,CLR,0.00,VWS V14.00,2013-05-19 15:05:00,
2013-05-19 11:12:00,66.4,41.3,30.36,SW,236,2.7,3.6,40,0.00,,CLR,0.00,VWS V14.00,2013-05-19 15:12:00,
2013-05-19 11:19:00,66.6,40.9,30.36,East,81,3.1,6.7,39,0.00,,CLR,0.00,VWS V14.00,2013-05-19 15:19:00,
2013-05-19 11:26:00,65.7,41.3,30.33,NW,322,5.8,6.3,41,0.00,,CLR,0.00,VWS V14.00,2013-05-19 15:26:00,
2013-05-19 11:33:00,64.2,40.7,30.33,North,7,7.6,10.1,42,0.00,,CLR,0.00,VWS V14.00,2013-05-19 15:33:00,
2013-05-19 11:40:00,62.4,40.8,30.33,North,0,6.3,12.3,45,0.00,,CLR,0.00,VWS V14.00,2013-05-19 15:40:00,
2013-05-19 11:45:00,61.7,41.3,30.33,North,4,5.8,10.1,47,0.00,,CLR,0.00,VWS V14.00,2013-05-19 15:45:00,
2013-05-19 11:50:00,61.3,42.0,30.33,North,9,9.2,10.1,49,0.00,,CLR,0.00,VWS V14.00,2013-05-19 15:50:00,
2013-05-19 11:56:00,61.0,42.2,30.33,North,353,7.6,10.5,50,0.00,,CLR,0.00,VWS V14.00,2013-05-19 15:56:00,
2013-05-19 12:03:00,60.8,41.5,30.33,NNW,343,10.5,10.5,49,0.00,,BKN036,0.00,VWS V14.00,2013-05-19 16:03:00,
2013-05-19 12:10:00,60.8,41.0,30.33,NE,34,4.9,10.5,48,0.00,,BKN036,0.00,VWS V14.00,2013-05-19 16:10:00,
2013-05-19 12:15:00,61.0,42.2,30.33,North,7,6.3,8.7,50,0.00,,BKN036,0.00,VWS V14.00,2013-05-19 16:15:00,
2013-05-19 12:22:00,61.7,43.4,30.33,NNW,333,8.1,10.5,51,0.00,,BKN036,0.00,VWS V14.00,2013-05-19 16:22:00,
2013-05-19 12:29:00,62.1,42.7,30.33,North,0,6.3,11.0,49,0.00,,BKN036,0.00,VWS V14.00,2013-05-19 16:29:00,
2013-05-19 12:36:00,62.1,42.7,30.33,NNW,340,9.2,12.3,49,0.00,,BKN036,0.00,VWS V14.00,2013-05-19 16:36:00,
2013-05-19 12:43:00,61.5,42.2,30.33,North,0,5.4,12.8,49,0.00,,BKN036,0.00,VWS V14.00,2013-05-19 16:43:00,
2013-05-19 12:50:00,61.9,43.1,30.33,North,6,11.0,12.8,50,0.00,,BKN036,0.00,VWS V14.00,2013-05-19 16:50:00,
2013-05-19 12:55:00,62.1,42.2,30.33,NNW,346,6.3,12.3,48,0.00,,BKN036,0.00,VWS V14.00,2013-05-19 16:55:00,
2013-05-19 13:02:00,62.2,42.9,30.33,North,353,6.3,10.5,49,0.00,,CLR,0.00,VWS V14.00,2013-05-19 17:02:00,
2013-05-19 13:09:00,62.2,41.2,30.33,North,357,8.7,12.3,46,0.00,,CLR,0.00,VWS V14.00,2013-05-19 17:09:00,
2013-05-19 13:16:00,62.2,42.9,30.33,NNW,340,8.7,14.1,49,0.00,,CLR,0.00,VWS V14.00,2013-05-19 17:16:00,
2013-05-19 13:23:00,62.6,41.5,30.33,North,4,10.1,11.0,46,0.00,,CLR,0.00,VWS V14.00,2013-05-19 17:23:00,
2013-05-19 13:30:00,62.6,41.0,30.33,North,353,5.8,11.0,45,0.00,,CLR,0.00,VWS V14.00,2013-05-19 17:30:00,
2013-05-19 13:35:00,63.0,41.3,30.30,NNW,339,6.3,10.5,45,0.00,,CLR,0.00,VWS V14.00,2013-05-19 17:35:00,
2013-05-19 13:42:00,63.7,43.1,30.30,North,350,8.7,10.5,47,0.00,,CLR,0.00,VWS V14.00,2013-05-19 17:42:00,
2013-05-19 13:49:00,62.6,39.8,30.30,NNE,22,5.8,10.5,43,0.00,,CLR,0.00,VWS V14.00,2013-05-19 17:49:00,
2013-05-19 13:56:00,62.2,40.7,30.30,North,0,7.6,11.4,45,0.00,,CLR,0.00,VWS V14.00,2013-05-19 17:56:00,
2013-05-19 14:03:00,61.9,40.3,30.30,NNW,344,6.3,10.5,45,0.00,,CLR,0.00,VWS V14.00,2013-05-19 18:03:00,
2013-05-19 14:10:00,62.1,42.2,30.30,North,353,7.6,10.5,48,0.00,,CLR,0.00,VWS V14.00,2013-05-19 18:10:00,
2013-05-19 14:17:00,62.6,39.8,30.30,SSE,160,3.1,8.1,43,0.00,,CLR,0.00,VWS V14.00,2013-05-19 18:17:00,
2013-05-19 14:24:00,62.6,39.2,30.30,SW,228,5.8,8.1,42,0.00,,CLR,0.00,VWS V14.00,2013-05-19 18:24:00,
2013-05-19 14:30:00,62.4,39.7,30.30,NNW,341,5.4,8.7,43,0.00,,CLR,0.00,VWS V14.00,2013-05-19 18:30:00,
2013-05-19 14:36:00,61.7,39.6,30.30,SW,225,3.1,5.8,44,0.00,,CLR,0.00,VWS V14.00,2013-05-19 18:36:00,
2013-05-19 14:43:00,61.5,40.6,30.30,SSW,192,3.1,5.4,46,0.00,,CLR,0.00,VWS V14.00,2013-05-19 18:43:00,
2013-05-19 14:50:00,61.7,41.3,30.30,West,278,0.0,8.7,47,0.00,,CLR,0.00,VWS V14.00,2013-05-19 18:50:00,
2013-05-19 14:57:00,61.0,40.1,30.30,South,170,4.0,5.8,46,0.00,,CLR,0.00,VWS V14.00,2013-05-19 18:57:00,
2013-05-19 15:04:00,60.6,41.9,30.30,NNW,336,2.7,6.3,50,0.00,,CLR,0.00,VWS V14.00,2013-05-19 19:04:00,
2013-05-19 15:10:00,60.6,41.4,30.30,NNW,330,3.1,6.3,49,0.00,,CLR,0.00,VWS V14.00,2013-05-19 19:10:00,
2013-05-19 15:15:00,60.4,41.2,30.30,WNW,286,2.7,5.8,49,0.00,,CLR,0.00,VWS V14.00,2013-05-19 19:15:00,
2013-05-19 15:22:00,60.3,41.0,30.30,ESE,104,2.7,6.3,49,0.00,,CLR,0.00,VWS V14.00,2013-05-19 19:22:00,
2013-05-19 15:29:00,60.4,41.7,30.30,SE,129,3.1,6.3,50,0.00,,CLR,0.00,VWS V14.00,2013-05-19 19:29:00,
2013-05-19 15:36:00,60.3,41.0,30.30,SSE,154,3.6,7.2,49,0.00,,CLR,0.00,VWS V14.00,2013-05-19 19:36:00,
2013-05-19 15:43:00,60.1,40.9,30.30,WSW,256,2.7,4.9,49,0.00,,CLR,0.00,VWS V14.00,2013-05-19 19:43:00,
2013-05-19 15:50:00,59.9,41.8,30.30,NW,318,5.8,5.8,51,0.00,,CLR,0.00,VWS V14.00,2013-05-19 19:50:00,
2013-05-19 15:55:00,59.7,41.1,30.30,South,187,3.6,6.3,50,0.00,,CLR,0.00,VWS V14.00,2013-05-19 19:55:00,
2013-05-19 16:02:00,59.4,40.7,30.30,SW,230,2.7,5.4,50,0.00,,CLR,0.00,VWS V14.00,2013-05-19 20:02:00,
2013-05-19 16:09:00,58.8,41.2,30.30,SW,219,3.1,6.3,52,0.00,,CLR,0.00,VWS V14.00,2013-05-19 20:09:00,
2013-05-19 16:16:00,58.5,41.4,30.30,SSW,194,3.1,6.3,53,0.00,,CLR,0.00,VWS V14.00,2013-05-19 20:16:00,
2013-05-19 16:23:00,58.1,42.0,30.30,NW,326,2.7,4.9,55,0.00,,CLR,0.00,VWS V14.00,2013-05-19 20:23:00,
2013-05-19 16:30:00,57.9,41.4,30.30,WNW,302,0.0,6.7,54,0.00,,CLR,0.00,VWS V14.00,2013-05-19 20:30:00,
2013-05-19 16:35:00,57.7,41.2,30.30,SSE,155,3.6,6.3,54,0.00,,CLR,0.00,VWS V14.00,2013-05-19 20:35:00,
2013-05-19 16:42:00,57.6,41.5,30.30,NW,325,0.0,3.1,55,0.00,,CLR,0.00,VWS V14.00,2013-05-19 20:42:00,
2013-05-19 16:49:00,57.6,42.0,30.30,NW,321,0.0,6.3,56,0.00,,CLR,0.00,VWS V14.00,2013-05-19 20:49:00,
2013-05-19 16:56:00,57.4,41.8,30.30,SSW,213,4.0,4.0,56,0.00,,CLR,0.00,VWS V14.00,2013-05-19 20:56:00,
2013-05-19 17:03:00,56.8,41.8,30.30,SW,235,3.6,5.4,57,0.00,,OVC090,0.00,VWS V14.00,2013-05-19 21:03:00,
2013-05-19 17:10:00,57.0,42.4,30.27,NW,326,4.0,5.4,58,0.00,,OVC090,0.00,VWS V14.00,2013-05-19 21:10:00,
2013-05-19 17:15:00,57.0,42.0,30.27,ENE,75,0.0,8.3,57,0.00,,OVC090,0.00,VWS V14.00,2013-05-19 21:15:00,
2013-05-19 17:22:00,57.0,42.4,30.27,NW,324,3.1,4.5,58,0.00,,OVC090,0.00,VWS V14.00,2013-05-19 21:22:00,
2013-05-19 17:29:00,56.7,42.1,30.27,North,353,0.0,5.4,58,0.00,,OVC090,0.00,VWS V14.00,2013-05-19 21:29:00,
2013-05-19 17:36:00,56.7,43.0,30.27,NNW,334,3.6,4.9,60,0.00,,OVC090,0.00,VWS V14.00,2013-05-19 21:36:00,
2013-05-19 17:43:00,56.7,43.0,30.27,NE,55,0.0,3.6,60,0.00,,OVC090,0.00,VWS V14.00,2013-05-19 21:43:00,
2013-05-19 17:50:00,56.7,42.5,30.27,NNW,346,0.0,3.6,59,0.00,,OVC090,0.00,VWS V14.00,2013-05-19 21:50:00,
2013-05-19 17:57:00,56.8,42.2,30.27,SE,145,0.0,2.7,58,0.00,,OVC090,0.00,VWS V14.00,2013-05-19 21:57:00,
2013-05-19 18:04:00,56.8,41.3,30.27,East,81,0.0,3.6,56,0.00,,OVC090,0.00,VWS V14.00,2013-05-19 22:04:00,
2013-05-19 18:10:00,56.8,40.9,30.27,SE,131,0.0,3.6,55,0.00,,OVC090,0.00,VWS V14.00,2013-05-19 22:10:00,
2013-05-19 18:16:00,56.8,41.3,30.27,SW,236,0.0,3.6,56,0.00,,OVC090,0.00,VWS V14.00,2013-05-19 22:16:00,
2013-05-19 18:23:00,57.0,41.5,30.27,South,170,2.2,4.5,56,0.00,,OVC090,0.00,VWS V14.00,2013-05-19 22:23:00,
2013-05-19 18:30:00,56.7,41.2,30.27,SSW,206,3.6,4.5,56,0.00,,OVC090,0.00,VWS V14.00,2013-05-19 22:30:00,
2013-05-19 18:37:00,56.3,40.8,30.27,South,170,0.0,4.0,56,0.00,,OVC090,0.00,VWS V14.00,2013-05-19 22:37:00,
2013-05-19 18:44:00,55.9,40.9,30.27,SW,222,0.0,0.0,57,0.00,,OVC090,0.00,VWS V14.00,2013-05-19 22:44:00,
2013-05-19 18:50:00,55.9,41.4,30.27,South,181,0.0,3.6,58,0.00,,OVC090,0.00,VWS V14.00,2013-05-19 22:50:00,
2013-05-19 18:55:00,55.8,41.7,30.27,SW,233,0.0,3.1,59,0.00,,OVC090,0.00,VWS V14.00,2013-05-19 22:55:00,
2013-05-19 19:02:00,55.8,41.7,30.27,SSW,210,2.7,4.0,59,0.00,,OVC090,0.00,VWS V14.00,2013-05-19 23:02:00,
2013-05-19 19:09:00,55.6,41.5,30.27,SSW,206,0.0,4.0,59,0.00,,OVC090,0.00,VWS V14.00,2013-05-19 23:09:00,
2013-05-19 19:17:00,55.4,41.8,30.27,SW,216,0.0,3.6,60,0.00,,-RA,0.00,VWS V14.00,2013-05-19 23:17:00,
2013-05-19 19:24:00,55.6,42.4,30.24,SW,216,0.0,0.0,61,0.00,,-RA,0.00,VWS V14.00,2013-05-19 23:24:00,
2013-05-19 19:30:00,55.6,42.4,30.24,SW,216,0.0,0.0,61,0.00,,-RA,0.00,VWS V14.00,2013-05-19 23:30:00,
2013-05-19 19:35:00,55.4,42.6,30.24,SW,216,0.0,0.0,62,0.00,,-RA,0.00,VWS V14.00,2013-05-19 23:35:00,
2013-05-19 19:42:00,55.4,42.6,30.24,SW,216,0.0,0.0,62,0.00,,-RA,0.00,VWS V14.00,2013-05-19 23:42:00,
2013-05-19 19:49:00,55.2,43.3,30.24,SW,216,0.0,0.0,64,0.00,,-RA,0.00,VWS V14.00,2013-05-19 23:49:00,
2013-05-19 19:56:00,55.0,43.5,30.24,SW,216,0.0,0.0,65,0.00,,-RA,0.00,VWS V14.00,2013-05-19 23:56:00,
2013-05-19 20:03:00,54.9,43.7,30.24,SW,216,0.0,0.0,66,0.00,,-RA,0.00,VWS V14.00,2013-05-20 00:03:00,
2013-05-19 20:10:00,54.9,44.1,30.24,SW,216,0.0,0.0,67,0.00,,-RA,0.00,VWS V14.00,2013-05-20 00:10:00,
2013-05-19 20:15:00,54.9,44.5,30.24,SW,216,0.0,0.0,68,0.00,,-RA,0.00,VWS V14.00,2013-05-20 00:15:00,
2013-05-19 20:22:00,54.7,44.7,30.24,SW,216,0.0,0.0,69,0.00,,-RA,0.00,VWS V14.00,2013-05-20 00:22:00,
2013-05-19 20:29:00,54.7,45.1,30.24,SW,216,0.0,0.0,70,0.00,,-RA,0.00,VWS V14.00,2013-05-20 00:29:00,
2013-05-19 20:36:00,54.7,45.5,30.24,SSW,204,0.0,0.0,71,0.00,,-RA,0.00,VWS V14.00,2013-05-20 00:36:00,
2013-05-19 20:43:00,54.7,45.8,30.24,SW,220,0.0,4.9,72,0.00,,-RA,0.00,VWS V14.00,2013-05-20 00:43:00,
2013-05-19 20:50:00,54.7,46.2,30.24,SW,220,0.0,4.9,73,0.00,,-RA,0.00,VWS V14.00,2013-05-20 00:50:00,
2013-05-19 20:55:00,54.7,46.2,30.24,SW,220,0.0,0.0,73,0.00,,-RA,0.00,VWS V14.00,2013-05-20 00:55:00,
2013-05-19 21:02:00,54.7,46.6,30.24,SW,220,0.0,0.0,74,0.00,,OVC080,0.00,VWS V14.00,2013-05-20 01:02:00,
2013-05-19 21:09:00,54.7,46.9,30.24,SW,220,0.0,0.0,75,0.00,,OVC080,0.00,VWS V14.00,2013-05-20 01:09:00,
2013-05-19 21:16:00,54.7,47.3,30.24,South,171,2.2,3.1,76,0.00,,OVC080,0.00,VWS V14.00,2013-05-20 01:16:00,
2013-05-19 21:23:00,54.7,47.3,30.27,South,171,0.0,0.0,76,0.00,,OVC080,0.00,VWS V14.00,2013-05-20 01:23:00,
2013-05-19 21:30:00,54.7,47.6,30.27,South,171,3.1,3.1,77,0.00,,OVC080,0.00,VWS V14.00,2013-05-20 01:30:00,
2013-05-19 21:35:00,54.7,47.6,30.24,South,177,0.0,3.1,77,0.00,,OVC080,0.00,VWS V14.00,2013-05-20 01:35:00,
2013-05-19 21:42:00,54.7,47.6,30.24,SSE,153,3.6,4.0,77,0.00,,OVC080,0.00,VWS V14.00,2013-05-20 01:42:00,
2013-05-19 21:49:00,54.9,48.1,30.24,SSW,203,0.0,4.0,78,0.00,,OVC080,0.00,VWS V14.00,2013-05-20 01:49:00,
2013-05-19 21:56:00,54.9,48.1,30.27,SW,214,3.1,4.0,78,0.00,,OVC080,0.00,VWS V14.00,2013-05-20 01:56:00,
2013-05-19 22:03:00,55.0,48.7,30.27,SSW,210,4.0,6.3,79,0.00,,-RA,0.00,VWS V14.00,2013-05-20 02:03:00,
2013-05-19 22:10:00,55.2,49.2,30.27,South,177,2.7,6.3,80,0.00,,-RA,0.00,VWS V14.00,2013-05-20 02:10:00,
2013-05-19 22:17:00,55.2,49.2,30.27,SW,216,2.7,5.8,80,0.00,,-RA,0.00,VWS V14.00,2013-05-20 02:17:00,
2013-05-19 22:24:00,55.2,49.5,30.27,South,181,2.2,4.0,81,0.00,,-RA,0.00,VWS V14.00,2013-05-20 02:24:00,
2013-05-19 22:30:00,55.4,49.7,30.27,SSE,152,3.6,4.5,81,0.00,,-RA,0.00,VWS V14.00,2013-05-20 02:30:00,
2013-05-19 22:36:00,55.4,50.0,30.24,SSW,194,0.0,4.9,82,0.00,,-RA,0.00,VWS V14.00,2013-05-20 02:36:00,
2013-05-19 22:43:00,55.6,50.2,30.24,South,178,0.0,3.1,82,0.00,,-RA,0.00,VWS V14.00,2013-05-20 02:43:00,
2013-05-19 22:50:00,55.6,50.5,30.24,SSW,198,2.2,3.1,83,0.00,,-RA,0.00,VWS V14.00,2013-05-20 02:50:00,
2013-05-19 22:57:00,55.8,51.0,30.24,SSW,196,5.4,5.8,84,0.00,,-RA,0.00,VWS V14.00,2013-05-20 02:57:00,
2013-05-19 23:04:00,55.8,51.0,30.24,SSW,204,3.6,3.6,84,0.00,,-RA,0.00,VWS V14.00,2013-05-20 03:04:00,
2013-05-19 23:10:00,55.8,51.3,30.24,SSE,155,4.9,4.9,85,0.00,,-RA,0.00,VWS V14.00,2013-05-20 03:10:00,
2013-05-19 23:15:00,55.9,51.8,30.24,SW,223,2.7,5.4,86,0.00,,-RA,0.00,VWS V14.00,2013-05-20 03:15:00,
2013-05-19 23:22:00,55.9,51.8,30.24,SW,217,2.2,2.7,86,0.00,,-RA,0.00,VWS V14.00,2013-05-20 03:22:00,
2013-05-19 23:29:00,55.9,51.8,30.24,SSW,205,0.0,5.4,86,0.00,,-RA,0.00,VWS V14.00,2013-05-20 03:29:00,
2013-05-19 23:36:00,55.9,51.8,30.24,SSW,193,0.0,2.7,86,0.00,,-RA,0.00,VWS V14.00,2013-05-20 03:36:00,
2013-05-19 23:43:00,55.9,52.1,30.24,South,172,0.0,2.7,87,0.04,,-RA,0.04,VWS V14.00,2013-05-20 03:43:00,
2013-05-19 23:50:00,55.9,52.1,30.24,SW,222,0.0,2.7,87,0.04,,-RA,0.04,VWS V14.00,2013-05-20 03:50:00,
2013-05-19 23:55:00,55.9,52.1,30.24,South,189,0.0,3.6,87,0.04,,-RA,0.04,VWS V14.00,2013-05-20 03:55:00,